Tiempo atmosférico en la estación meteorológica de Burgo de Osma, Soria (932 m.)



Fecha
DESCASC
Temp. máxima en grados centígrados (hora)
DESCASC
Temp. mínima en grados centígrados (hora)
DESCASC
Temp. media en grados centígrados
DESCASC
Racha de viento máxima en m/sg (hora)
DESCASC
Velocidad máxima media en intervalos de 10 minutos(hora)
DESCASC
Precipitaciones diarias en mm
DESCASC
Precipitaciones de 00:00 a 06:00 en mm
DESCASC
Precipitaciones de 06:00 a 12:00 en mm
DESCASC
Precipitaciones de 12:00 a 18:00 en mm
DESCASC
Precipitaciones de 18:00 a 24:00 en mm
DESCASC
06-07-2020 32.9 (17:10) 12.2 (06:20) 22.6 9.17 (19:00) 5.83 (19:40) 0 0 0 0 0
05-07-2020 35.6 (20:00) 8.4 (06:50) 22 5.28 (12:10) 3.33 (21:40) 0 0 0 0 0
04-07-2020 31.1 (17:40) 6.2 (06:50) 18.7 7.5 (17:10) 4.44 (16:40) 0 0 0 0 0
03-07-2020 26.6 (17:20) 7.9 (06:40) 17.3 9.17 (19:00) 6.11 (19:40) 0 0 0 0 0
02-07-2020 27.3 (17:00) 10.9 (00:00) 19.1 12.22 (18:10) 7.78 (17:20) 0 0 0 0 0
01-07-2020 30.7 (18:30) 13 (00:00) 21.9 11.94 (18:30) 7.5 (18:30) 0 0 0 0 0
30-06-2020 33.8 (14:50) 12.4 (00:00) 23.1 24.72 (18:00) 10 (18:00) 13.8 0 0 13.4 0.4
29-06-2020 32 (18:00) 12.4 (00:00) 22.2 12.22 (15:40) 6.11 (16:10) 0 0 0 0 0
28-06-2020 30.6 (19:10) 11.2 (00:00) 20.9 9.72 (16:30) 5.56 (17:10) 0 0 0 0 0
27-06-2020 27.6 (18:10) 9.9 (00:00) 18.8 10.28 (18:40) 6.11 (17:20) 0 0 0 0 0
26-06-2020 28.5 (17:30) 14.8 (00:00) 21.7 11.67 (18:50) 6.67 (18:20) 0 0 0 0 0
25-06-2020 31 (15:00) 14 (00:00) 22.5 12.5 (19:20) 8.33 (17:30) 1 0 0.4 0 0.6
24-06-2020 30.7 (19:20) 13 (00:00) 21.9 16.67 (11:10) 7.22 (14:30) 0 0 0 0 0
23-06-2020 33.7 (15:20) 10.8 (00:00) 22.3 11.39 (22:00) 7.5 (21:30) 4.8 0 0 0 4.8
22-06-2020 33.2 (19:30) 8.5 (00:00) 20.9 6.11 (12:40) 4.17 (10:30) 0 0 0 0 0
21-06-2020 29.2 (17:50) 8.6 (00:00) 18.9 10.28 (16:40) 6.11 (16:20) 0 0 0 0 0
20-06-2020 28.6 (18:40) 7.9 (00:00) 18.3 12.22 (14:50) 5.56 (14:10) 0 0 0 0 0
19-06-2020 26.7 (18:10) 7.7 (00:00) 17.2 13.06 (13:40) 6.39 (16:30) 0 0 0 0 0
18-06-2020 24.1 (17:40) 8.3 (06:50) 16.2 10.28 (16:30) 6.11 (17:00) 0 0 0 0 0
17-06-2020 20.7 (17:30) 9.2 (00:00) 15 9.72 (14:40) 6.11 (15:30) 0 0 0 0 0
16-06-2020 20.9 (16:30) 10.6 (00:00) 15.8 17.5 (18:20) 11.39 (18:20) 0 0 0 0 0
15-06-2020 22 (16:40) 8.1 (00:00) 15.1 10 (16:10) 5.83 (18:10) 0 0 0 0 0
14-06-2020 20.8 (16:40) 8.4 (00:00) 14.6 10.28 (15:30) 6.11 (19:00) 0 0 0 0 0
13-06-2020 19 (18:50) 8.8 (00:00) 13.9 11.11 (14:20) 6.94 (14:20) 1 1 0 0 0
12-06-2020 16.2 (17:10) 7.3 (00:00) 11.8 15.83 (09:20) 10.83 (17:20) 7.4 0 0 2.2 5.2
11-06-2020 18.9 (16:20) 8.2 (00:00) 13.5 14.44 (16:20) 10 (16:00) 0 0 0 0 0
10-06-2020 20.3 (15:20) 2.5 (00:00) 11.4 9.72 (13:50) 5.83 (14:50) 0 0 0 0 0
09-06-2020 18.1 (18:20) 1.8 (00:00) 10 12.22 (15:00) 5.56 (14:30) 0 0 0 0 0

Gráficas

Temp. máximas Temp. mínimas Temp. medias Precipitaciones Rachas de viento máximas Velocidades máximas media en intervalos de 10 minutos

Datos horarios

Fecha y hora oficial Temperatura (ºC) Velocidad del viento (km/h) Dirección del viento Racha (km/h) Dirección de racha Precipitación (mm) Presión (hPa) Tendencia (hPa) Humedad (%)
2020-07-08 23:00:00 19.9 19 Noroeste 33 Noroeste 0 -- -- 59
2020-07-08 22:00:00 24.1 14 Noroeste 36 Noroeste 0 -- -- 40
2020-07-08 21:00:00 26.1 13 Sudeste 45 Sudeste 0 -- -- 33
2020-07-08 20:00:00 27.6 27 Sudeste 48 Sudeste 0 -- -- 29
2020-07-08 19:00:00 30.5 19 Sudeste 31 Sudeste 0 -- -- 25
2020-07-08 18:00:00 29.7 21 Sudeste 37 Sudeste 0 -- -- 26
2020-07-08 17:00:00 30.7 10 Sudoeste 36 Sudeste 0 -- -- 23
2020-07-08 16:00:00 31.4 6 Sudeste 27 Sudoeste 0 -- -- 20
2020-07-08 15:00:00 31.6 8 Sur 19 Sudeste 0 -- -- 22
2020-07-08 14:00:00 31.1 11 Sudeste 20 Sudeste 0 -- -- 27
2020-07-08 13:00:00 28.3 14 Nordeste 22 Nordeste 0 -- -- 34
2020-07-08 12:00:00 25.3 12 Nordeste 24 Nordeste 0 -- -- 39
2020-07-08 11:00:00 23.2 12 Norte 27 Sur 0 -- -- 40
2020-07-08 10:00:00 22 17 Este 23 Este 0 -- -- 44
2020-07-08 09:00:00 20.2 13 Este 24 Nordeste 0 -- -- 47
2020-07-08 08:00:00 17.7 7 Nordeste 20 Este 0 -- -- 55
2020-07-08 07:00:00 16.5 9 Este 14 Este 0 -- -- 59
2020-07-08 06:00:00 15.4 9 Este 16 Este 0 -- -- 62
2020-07-08 05:00:00 15.7 10 Este 13 Este 0 -- -- 59
2020-07-08 04:00:00 15.9 9 Este 12 Este 0 -- -- 60
2020-07-08 03:00:00 16.9 8 Este 11 Este 0 -- -- 56
2020-07-08 02:00:00 18 8 Este 12 Este 0 -- -- 51
2020-07-08 01:00:00 19.7 7 Este 15 Este 0 -- -- 45
2020-07-08 00:00:00 21.8 9 Este 21 Sudeste 0 -- -- 39
2020-07-07 23:00:00 23.9 12 Este 22 Este 0 -- -- 35
2020-07-07 22:00:00 26.2 11 Este 20 Este 0 -- -- 32
2020-07-07 21:00:00 30.5 13 Norte 20 Norte 0 -- -- 26
2020-07-07 20:00:00 34.2 7 Noroeste 22 Noroeste 0 -- -- 23
2020-07-07 19:00:00 34.9 6 Noroeste 29 Oeste 0 -- -- 22
2020-07-07 18:00:00 33.9 15 Noroeste 30 Noroeste 0 -- -- 23
2020-07-07 17:00:00 33.4 18 Noroeste 32 Noroeste 0 -- -- 24
2020-07-07 16:00:00 32.6 20 Noroeste 36 Noroeste 0 -- -- 27
2020-07-07 15:00:00 31.7 14 Noroeste 27 Oeste 0 -- -- 30
2020-07-07 14:00:00 31 12 Noroeste 20 Norte 0 -- -- 32
2020-07-07 13:00:00 29 11 Oeste 19 Oeste 0 -- -- 33
2020-07-07 12:00:00 28.1 5 Sudoeste 10 Este 0 -- -- 27
2020-07-07 11:00:00 24.4 5 Nordeste 9 Este 0 -- -- 28
2020-07-07 10:00:00 20.9 8 Este 12 Este 0 -- -- 34
2020-07-07 09:00:00 16.7 6 Este 10 Este 0 -- -- 51
2020-07-07 08:00:00 11.9 4 Este 9 Este 0 -- -- 77
2020-07-07 07:00:00 9.2 6 Este 10 Este 0 -- -- 88
2020-07-07 06:00:00 9.3 4 Este 6 Este 0 -- -- 88
2020-07-07 05:00:00 10.2 3 Este 6 Nordeste 0 -- -- 85
2020-07-07 04:00:00 10.9 3 Este 5 Este 0 -- -- 85
2020-07-07 03:00:00 12.4 0 Calma 6 Nordeste 0 -- -- 80
2020-07-07 02:00:00 15.1 5 Este 10 Este 0 -- -- 68
2020-07-07 01:00:00 17 6 Este 13 Este 0 -- -- 62
2020-07-07 00:00:00 18.9 4 Sudeste 13 Sudeste 0 -- -- 52
2020-07-06 23:00:00 20.3 7 Este 18 Este 0 -- -- 50
2020-07-06 22:00:00 22.5 14 Sudeste 21 Este 0 -- -- 47
2020-07-06 21:00:00 26.6 17 Este 26 Este 0 -- -- 40
2020-07-06 20:00:00 29.8 17 Este 30 Este 0 -- -- 34
2020-07-06 19:00:00 32 16 Oeste 33 Oeste 0 -- -- 31
2020-07-06 18:00:00 31.2 14 Noroeste 27 Noroeste 0 -- -- 34
2020-07-06 17:00:00 32.1 8 Noroeste 29 Noroeste 0 -- -- 31
2020-07-06 16:00:00 31.9 12 Oeste 28 Noroeste 0 -- -- 32
2020-07-06 15:00:00 31 6 Oeste 32 Norte 0 -- -- 33
2020-07-06 14:00:00 29.7 8 Norte 19 Norte 0 -- -- 34
2020-07-06 13:00:00 28.7 5 Noroeste 12 Noroeste 0 -- -- 36
2020-07-06 12:00:00 27.8 5 Nordeste 13 Este 0 -- -- 38
2020-07-06 11:00:00 25.6 7 Este 13 Este 0 -- -- 42
2020-07-06 10:00:00 22.6 4 Este 9 Este 0 -- -- 53
2020-07-06 09:00:00 18.7 5 Este 8 Este 0 -- -- 67
2020-07-06 08:00:00 14.7 2 Este 6 Este 0 -- -- 83
2020-07-06 07:00:00 12.8 4 Este 6 Nordeste 0 -- -- 89
2020-07-06 06:00:00 12.5 3 Sudeste 7 Este 0 -- -- 89
2020-07-06 05:00:00 13.3 5 Este 8 Nordeste 0 -- -- 86
2020-07-06 04:00:00 13.9 3 Sudeste 5 Sudeste 0 -- -- 85
2020-07-06 03:00:00 14.6 2 Sudeste 6 Sudeste 0 -- -- 82
2020-07-06 02:00:00 16.6 3 Este 6 Nordeste 0 -- -- 74
2020-07-06 01:00:00 18.3 0 Calma 5 Sudeste 0 -- -- 66
2020-07-06 00:00:00 21.5 4 Sudeste 6 Sudeste 0 -- -- 54
2020-07-05 23:00:00 22.8 5 Nordeste 16 Este 0 -- -- 49
2020-07-05 22:00:00 24.3 10 Noroeste 17 Nordeste 0 -- -- 36
2020-07-05 21:00:00 30.4 8 Noroeste 10 Noroeste 0 -- -- 24
2020-07-05 20:00:00 35.6 2 Sudeste 12 Noroeste 0 -- -- 16
2020-07-05 19:00:00 32.6 9 Noroeste 17 Oeste 0 -- -- 18
2020-07-05 18:00:00 33.4 7 Sudoeste 18 Oeste 0 -- -- 18
2020-07-05 17:00:00 33 5 Oeste 18 Sudoeste 0 -- -- 19
2020-07-05 16:00:00 32 8 Este 17 Nordeste 0 -- -- 22
2020-07-05 15:00:00 30.9 9 Nordeste 18 Nordeste 0 -- -- 24
2020-07-05 14:00:00 29.9 8 Noroeste 15 Nordeste 0 -- -- 25
2020-07-05 13:00:00 28.7 9 Este 19 Sudeste 0 -- -- 28
2020-07-05 12:00:00 27.3 6 Este 17 Este 0 -- -- 33
2020-07-05 11:00:00 24.9 11 Este 17 Este 0 -- -- 39
2020-07-05 10:00:00 21.1 8 Este 12 Este 0 -- -- 48
2020-07-05 09:00:00 15.1 5 Este 8 Este 0 -- -- 65
2020-07-05 08:00:00 10.7 6 Este 8 Este 0 -- -- 77
2020-07-05 07:00:00 8.5 4 Nordeste 8 Nordeste 0 -- -- 86
2020-07-05 06:00:00 8.9 8 Nordeste 10 Nordeste 0 -- -- 84
2020-07-05 05:00:00 9 5 Este 7 Este 0 -- -- 84
2020-07-05 04:00:00 9.4 3 Este 6 Este 0 -- -- 82
2020-07-05 03:00:00 10.5 3 Este 4 Este 0 -- -- 78
2020-07-05 02:00:00 12.1 3 Sudeste 7 Sudeste 0 -- -- 71
2020-07-05 01:00:00 15.7 4 Este 6 Sudeste 0 -- -- 56
2020-07-05 00:00:00 18.5 2 Este 10 Este 0 -- -- 43
2020-07-04 23:00:00 20.8 6 Nordeste 19 Este 0 -- -- 36
2020-07-04 22:00:00 23.3 11 Oeste 16 Oeste 0 -- -- 32
2020-07-04 21:00:00 27.9 10 Oeste 17 Oeste 0 -- -- 19
2020-07-04 20:00:00 29.8 12 Oeste 24 Sudoeste 0 -- -- 15
2020-07-04 19:00:00 30.3 13 Oeste 25 Oeste 0 -- -- 15
2020-07-04 18:00:00 29.9 13 Oeste 27 Noroeste 0 -- -- 15
2020-07-04 17:00:00 29.8 16 Oeste 27 Oeste 0 -- -- 15
2020-07-04 16:00:00 30 8 Oeste 26 Noroeste 0 -- -- 16
2020-07-04 15:00:00 28 12 Oeste 26 Oeste 0 -- -- 16
2020-07-04 14:00:00 26.1 16 Oeste 26 Oeste 0 -- -- 20
2020-07-04 13:00:00 24.7 11 Oeste 26 Oeste 0 -- -- 25
2020-07-04 12:00:00 22.6 11 Oeste 20 Oeste 0 -- -- 31
2020-07-04 11:00:00 20.2 9 Noroeste 14 Oeste 0 -- -- 41
2020-07-04 10:00:00 17.6 3 Nordeste 8 Este 0 -- -- 57
2020-07-04 09:00:00 12.4 3 Este 5 Nordeste 0 -- -- 75
2020-07-04 08:00:00 8.6 4 Este 7 Este 0 -- -- 87
2020-07-04 07:00:00 6.4 4 Nordeste 7 Este 0 -- -- 93
2020-07-04 06:00:00 6.8 5 Nordeste 8 Nordeste 0 -- -- 92
2020-07-04 05:00:00 6.7 3 Este -- -- 0 -- -- 90
2020-07-04 04:00:00 7.9 3 Nordeste 8 Nordeste 0 -- -- 87
2020-07-04 03:00:00 8.5 3 Este 5 Este 0 -- -- 85
2020-07-04 02:00:00 9.6 2 Noroeste 6 Este 0 -- -- 80
2020-07-04 01:00:00 12.5 2 Noroeste 11 Oeste 0 -- -- 68
2020-07-04 00:00:00 14.2 9 Oeste 22 Oeste 0 -- -- 59
2020-07-03 23:00:00 16.7 16 Oeste 21 Oeste 0 -- -- 49
2020-07-03 22:00:00 19.2 9 Oeste 26 Noroeste 0 -- -- 39
2020-07-03 21:00:00 23.3 15 Noroeste 29 Noroeste 0 -- -- 29
2020-07-03 20:00:00 25.1 19 Noroeste 30 Noroeste 0 -- -- 26
2020-07-03 19:00:00 26.1 21 Noroeste 33 Noroeste 0 -- -- 26
2020-07-03 18:00:00 26.3 16 Oeste 33 Sudoeste 0 -- -- 26
2020-07-03 17:00:00 26.3 8 Noroeste 25 Oeste 0 -- -- 25
2020-07-03 16:00:00 25.2 5 Norte 23 Noroeste 0 -- -- 31
2020-07-03 15:00:00 24.6 5 Oeste 25 Nordeste 0 -- -- 34
2020-07-03 14:00:00 22.9 5 Sudeste 14 Oeste 0 -- -- 40
2020-07-03 13:00:00 21.6 6 Oeste 15 Sudoeste 0 -- -- 43
2020-07-03 12:00:00 20.9 7 Sudeste 16 Sudeste 0 -- -- 49
2020-07-03 11:00:00 18.8 6 Este 15 Este 0 -- -- 54
2020-07-03 10:00:00 16.1 7 Este 17 Este 0 -- -- 64
2020-07-03 09:00:00 13.4 5 Este 10 Este 0 -- -- 76
2020-07-03 08:00:00 9.8 3 Este 4 Sudeste 0 -- -- 92
2020-07-03 07:00:00 7.9 2 Este 3 Este 0 -- -- 94
2020-07-03 06:00:00 8.7 3 Sudeste 6 Sudeste 0 -- -- 91
2020-07-03 05:00:00 10 0 Calma 5 Sudeste 0 -- -- 88
2020-07-03 04:00:00 10.8 0 Calma 10 Este 0 -- -- 85
2020-07-03 03:00:00 12.1 7 Sudeste 14 Sudeste 0 -- -- 80
2020-07-03 02:00:00 12.7 8 Este 19 Este 0 -- -- 79
2020-07-03 01:00:00 13.7 9 Sudeste 23 Sudeste 0 -- -- 76
2020-07-03 00:00:00 14.7 15 Este 24 Este 0 -- -- 74
2020-07-02 23:00:00 16.3 13 Sudeste 33 Nordeste 0 -- -- 71
2020-07-02 22:00:00 21.4 10 Nordeste 30 Noroeste 0 -- -- 50
2020-07-02 21:00:00 24.8 18 Noroeste 35 Oeste 0 -- -- 33
2020-07-02 20:00:00 26.1 25 Noroeste 36 Noroeste 0 -- -- 32
2020-07-02 19:00:00 26.8 21 Oeste 44 Oeste 0 -- -- 33
2020-07-02 18:00:00 27.1 22 Noroeste 40 Oeste 0 -- -- 33
2020-07-02 17:00:00 27.3 25 Oeste 40 Noroeste 0 -- -- 33
2020-07-02 16:00:00 26.5 23 Oeste 36 Noroeste 0 -- -- 38
2020-07-02 15:00:00 25.1 18 Noroeste 34 Oeste 0 -- -- 44
2020-07-02 14:00:00 23.7 21 Oeste 33 Noroeste 0 -- -- 48
2020-07-02 13:00:00 23.3 18 Noroeste 28 Noroeste 0 -- -- 52
2020-07-02 12:00:00 22.3 15 Noroeste 26 Oeste 0 -- -- 55
2020-07-02 11:00:00 21.1 16 Noroeste 24 Oeste 0 -- -- 59
2020-07-02 10:00:00 18.9 13 Oeste 21 Noroeste 0 -- -- 69
2020-07-02 09:00:00 17.1 7 Sudoeste 14 Oeste 0 -- -- 76
2020-07-02 08:00:00 13.4 0 Calma 4 Este 0 -- -- 86
2020-07-02 07:00:00 11.2 0 Calma 4 Sudeste 0 -- -- 93
2020-07-02 06:00:00 11.3 0 Calma 5 Sudeste 0 -- -- 89
2020-07-02 05:00:00 12.1 2 Sudeste 8 Nordeste 0 -- -- 87
2020-07-02 04:00:00 12.4 4 Este 6 Este 0 -- -- 85
2020-07-02 03:00:00 14.5 3 Sur 10 Noroeste 0 -- -- 75
2020-07-02 02:00:00 15.5 5 Este 9 Este 0 -- -- 69
2020-07-02 01:00:00 18.2 9 Oeste 12 Oeste 0 -- -- 54
2020-07-02 00:00:00 20.6 8 Oeste 18 Oeste 0 -- -- 40
2020-07-01 23:00:00 22.2 12 Oeste 21 Oeste 0 -- -- 34
2020-07-01 22:00:00 23.8 14 Oeste 22 Noroeste 0 -- -- 30
2020-07-01 21:00:00 27.7 17 Oeste 35 Oeste 0 -- -- 26
2020-07-01 20:00:00 29.5 26 Oeste 43 Oeste 0 -- -- 24
2020-07-01 19:00:00 29.6 24 Oeste 43 Oeste 0 -- -- 26
2020-07-01 18:00:00 29.6 22 Oeste 41 Oeste 0 -- -- 30
2020-07-01 17:00:00 30 15 Noroeste 32 Oeste 0 -- -- 33
2020-07-01 16:00:00 28.6 20 Oeste 35 Oeste 0 -- -- 38
2020-07-01 15:00:00 28.1 18 Oeste 32 Oeste 0 -- -- 42
2020-07-01 14:00:00 28 17 Oeste 32 Oeste 0 -- -- 44
2020-07-01 13:00:00 27.3 10 Noroeste 26 Oeste 0 -- -- 47
2020-07-01 12:00:00 25.4 16 Oeste 27 Oeste 0 -- -- 51
2020-07-01 11:00:00 23.9 14 Oeste 22 Oeste 0 -- -- 58
2020-07-01 10:00:00 21.8 13 Noroeste 23 Oeste 0 -- -- 61
2020-07-01 09:00:00 20.3 10 Oeste 16 Oeste 0 -- -- 68
2020-07-01 08:00:00 15.4 2 Este 6 Nordeste 0 -- -- 94
2020-07-01 07:00:00 13 2 Este 5 Sudeste 0 -- -- 95
2020-07-01 06:00:00 13.7 3 Nordeste 7 Este 0 -- -- 95
2020-07-01 05:00:00 14.1 3 Este 10 Este 0 -- -- 94
2020-07-01 04:00:00 15.2 8 Nordeste 12 Nordeste 0 -- -- 91
2020-07-01 03:00:00 15.6 5 Nordeste 8 Este 0 -- -- 90
2020-07-01 02:00:00 16.6 4 Este 9 Nordeste 0 -- -- 85
2020-07-01 01:00:00 16.9 2 Este 13 Este 0 -- -- 85
2020-07-01 00:00:00 17.5 8 Este 17 Noroeste 0 -- -- 83
2020-06-30 23:00:00 19.9 17 Este 28 Este 0 -- -- 71
2020-06-30 22:00:00 19.6 8 Sudeste 26 Oeste 0 -- -- 79
2020-06-30 21:00:00 20.3 8 Norte 21 Norte 0 -- -- 78
2020-06-30 20:00:00 20.4 13 Norte 22 Norte 0 -- -- 74
2020-06-30 19:00:00 20.5 7 Este 34 Nordeste 0.4 -- -- 73
2020-06-30 18:00:00 16.4 36 Noroeste 89 Oeste 13.4 -- -- 92
2020-06-30 17:00:00 30.9 15 Este 23 Este 0 -- -- 36
2020-06-30 16:00:00 27.9 16 Sudeste 34 Sudeste 0 -- -- 38
2020-06-30 15:00:00 33.6 8 Sur 18 Oeste 0 -- -- 29
2020-06-30 14:00:00 31.9 9 Sudoeste 19 Sudoeste 0 -- -- 31
2020-06-30 13:00:00 30.2 11 Este 26 Este 0 -- -- 36
2020-06-30 12:00:00 27.5 16 Este 27 Este 0 -- -- 43
2020-06-30 11:00:00 24.8 16 Este 33 Este 0 -- -- 48
2020-06-30 10:00:00 22.1 21 Este 31 Este 0 -- -- 52
2020-06-30 09:00:00 19.7 14 Este 22 Este 0 -- -- 63
2020-06-30 08:00:00 15.4 5 Este 10 Este 0 -- -- 77
2020-06-30 07:00:00 13.1 0 Calma 7 Este 0 -- -- 89
2020-06-30 06:00:00 12.4 0 Calma 8 Este 0 -- -- 92
2020-06-30 05:00:00 13.9 6 Nordeste 9 Nordeste 0 -- -- 89
2020-06-30 04:00:00 15.1 2 Este 5 Nordeste 0 -- -- 86
2020-06-30 03:00:00 16.2 3 Este 10 Este 0 -- -- 83
2020-06-30 02:00:00 18.1 10 Sudeste 14 Este 0 -- -- 79
2020-06-30 01:00:00 18.6 8 Este 18 Este 0 -- -- 77
2020-06-30 00:00:00 20.4 12 Este 17 Este 0 -- -- 70
2020-06-29 23:00:00 22.1 11 Este 24 Este 0 -- -- 64
2020-06-29 22:00:00 24.8 10 Nordeste 21 Norte 0 -- -- 52
2020-06-29 21:00:00 28.9 15 Norte 22 Noroeste 0 -- -- 39
2020-06-29 20:00:00 30.9 15 Noroeste 27 Noroeste 0 -- -- 30
2020-06-29 19:00:00 31.6 16 Noroeste 35 Oeste 0 -- -- 29
2020-06-29 18:00:00 32 11 Noroeste 32 Oeste 0 -- -- 29
2020-06-29 17:00:00 31 18 Oeste 31 Oeste 0 -- -- 32
2020-06-29 16:00:00 30.4 13 Noroeste 44 Oeste 0 -- -- 35
2020-06-29 15:00:00 29.2 11 Noroeste 24 Oeste 0 -- -- 39
2020-06-29 14:00:00 28.3 11 Oeste 26 Oeste 0 -- -- 41
2020-06-29 13:00:00 26.7 12 Noroeste 18 Oeste 0 -- -- 45
2020-06-29 12:00:00 25.4 6 Sudoeste 17 Oeste 0 -- -- 49
2020-06-29 11:00:00 23.7 6 Sudoeste 15 Oeste 0 -- -- 55
2020-06-29 10:00:00 21.3 4 Sudoeste 10 Sudeste 0 -- -- 61
2020-06-29 09:00:00 18.1 3 Este 6 Este 0 -- -- 75
2020-06-29 08:00:00 14.7 4 Este 6 Este 0 -- -- 86
2020-06-29 07:00:00 12.7 3 Nordeste 6 Nordeste 0 -- -- 92
2020-06-29 06:00:00 12.5 0 Calma 5 Sudeste 0 -- -- 91
2020-06-29 05:00:00 13.3 2 Sudeste 4 Este 0 -- -- 88
2020-06-29 04:00:00 14.1 2 Este 5 Nordeste 0 -- -- 84
2020-06-29 03:00:00 15.8 3 Este 6 Sudeste 0 -- -- 79
2020-06-29 02:00:00 17.8 0 Calma 4 Este 0 -- -- 72
2020-06-29 01:00:00 17.1 0 Calma 6 Este 0 -- -- 70
2020-06-29 00:00:00 19.1 4 Sudeste 5 Este 0 -- -- 62
2020-06-28 23:00:00 23 5 Noroeste 12 Noroeste 0 -- -- 43
2020-06-28 22:00:00 24 10 Noroeste 15 Noroeste 0 -- -- 43
2020-06-28 21:00:00 28.1 13 Noroeste 23 Oeste 0 -- -- 35
2020-06-28 20:00:00 29.5 15 Noroeste 28 Oeste 0 -- -- 32
2020-06-28 19:00:00 30 17 Oeste 29 Sudoeste 0 -- -- 30
2020-06-28 18:00:00 30.2 14 Noroeste 31 Oeste 0 -- -- 31
2020-06-28 17:00:00 29.3 13 Noroeste 35 Oeste 0 -- -- 34
2020-06-28 16:00:00 28.8 14 Noroeste 33 Oeste 0 -- -- 37
2020-06-28 15:00:00 27.9 13 Sudoeste 27 Oeste 0 -- -- 39
2020-06-28 14:00:00 26.8 11 Noroeste 27 Noroeste 0 -- -- 41
2020-06-28 13:00:00 25.3 13 Noroeste 23 Oeste 0 -- -- 47
2020-06-28 12:00:00 23.6 12 Oeste 22 Oeste 0 -- -- 52
2020-06-28 11:00:00 22.3 10 Noroeste 20 Oeste 0 -- -- 53
2020-06-28 10:00:00 20.4 9 Oeste 22 Oeste 0 -- -- 60
2020-06-28 09:00:00 17.9 2 Norte 6 Sudeste 0 -- -- 71
2020-06-28 08:00:00 14.2 0 Calma 4 Sudeste 0 -- -- 83
2020-06-28 07:00:00 11.5 0 Calma 3 Sudeste 0 -- -- 92
2020-06-28 06:00:00 12 0 Calma 5 Sudeste 0 -- -- 89
2020-06-28 05:00:00 15.3 7 Oeste 12 Oeste 0 -- -- 79
2020-06-28 04:00:00 15.6 9 Oeste 12 Oeste 0 -- -- 77
2020-06-28 03:00:00 15.6 9 Oeste 12 Oeste 0 -- -- 76
2020-06-28 02:00:00 16.8 6 Sudoeste 8 Sudoeste 0 -- -- 71
2020-06-28 01:00:00 16.3 0 Calma 5 Sudeste 0 -- -- 72
2020-06-28 00:00:00 18.8 4 Norte 10 Noroeste 0 -- -- 63
2020-06-27 23:00:00 20.6 8 Noroeste 12 Oeste 0 -- -- 53
2020-06-27 22:00:00 22 8 Noroeste 19 Noroeste 0 -- -- 49
2020-06-27 21:00:00 26 10 Noroeste 29 Noroeste 0 -- -- 38
2020-06-27 20:00:00 27 17 Noroeste 32 Oeste 0 -- -- 36
2020-06-27 19:00:00 27.4 17 Noroeste 37 Oeste 0 -- -- 35
2020-06-27 18:00:00 27.4 17 Noroeste 35 Noroeste 0 -- -- 36
2020-06-27 17:00:00 27.2 16 Noroeste 31 Noroeste 0 -- -- 39
2020-06-27 16:00:00 26.1 18 Noroeste 35 Oeste 0 -- -- 40
2020-06-27 15:00:00 25 19 Oeste 34 Noroeste 0 -- -- 43
2020-06-27 14:00:00 24 14 Oeste 35 Oeste 0 -- -- 48
2020-06-27 13:00:00 23.3 14 Oeste 31 Noroeste 0 -- -- 50
2020-06-27 12:00:00 21.8 17 Oeste 27 Oeste 0 -- -- 54
2020-06-27 11:00:00 20.4 14 Oeste 26 Noroeste 0 -- -- 61
2020-06-27 10:00:00 18.1 14 Oeste 26 Oeste 0 -- -- 66
2020-06-27 09:00:00 16.5 17 Oeste 24 Oeste 0 -- -- 74
2020-06-27 08:00:00 13.8 6 Oeste 13 Oeste 0 -- -- 84
2020-06-27 07:00:00 10.1 0 Calma 4 Sudeste 0 -- -- 85
2020-06-27 06:00:00 10.5 2 Sudeste 7 Sudoeste 0 -- -- 82
2020-06-27 05:00:00 11.3 0 Calma 4 Sudoeste 0 -- -- 79
2020-06-27 04:00:00 11.4 0 Calma 5 Este 0 -- -- 76
2020-06-27 03:00:00 12.7 0 Calma 5 Sudeste 0 -- -- 69
2020-06-27 02:00:00 13.2 3 Sudoeste 5 Oeste 0 -- -- 66
2020-06-27 01:00:00 15 2 Nordeste 12 Oeste 0 -- -- 55
2020-06-27 00:00:00 17.7 8 Oeste 15 Oeste 0 -- -- 42
2020-06-26 23:00:00 19 12 Oeste 17 Oeste 0 -- -- 40
2020-06-26 22:00:00 21.4 10 Noroeste 33 Oeste 0 -- -- 35
2020-06-26 21:00:00 24.1 18 Oeste 33 Noroeste 0 -- -- 31
2020-06-26 20:00:00 25.1 21 Oeste 31 Oeste 0 -- -- 34
2020-06-26 19:00:00 27.1 22 Oeste 42 Oeste 0 -- -- 33
2020-06-26 18:00:00 27.4 20 Oeste 31 Oeste 0 -- -- 33
2020-06-26 17:00:00 27.3 18 Oeste 35 Oeste 0 -- -- 33
2020-06-26 16:00:00 27.5 21 Oeste 33 Oeste 0 -- -- 35
2020-06-26 15:00:00 26.7 19 Oeste 38 Oeste 0 -- -- 34
2020-06-26 14:00:00 27.1 18 Oeste 33 Oeste 0 -- -- 33
2020-06-26 13:00:00 25.6 20 Oeste 32 Oeste 0 -- -- 38
2020-06-26 12:00:00 25.9 8 Oeste 16 Sudoeste 0 -- -- 44
2020-06-26 11:00:00 25 8 Este 17 Este 0 -- -- 48
2020-06-26 10:00:00 21.3 8 Este 16 Este 0 -- -- 59
2020-06-26 09:00:00 17.7 11 Este 17 Este 0 -- -- 76
2020-06-26 08:00:00 15.9 10 Este 14 Este 0 -- -- 84
2020-06-26 07:00:00 14.8 9 Este 14 Este 0 -- -- 88
2020-06-26 06:00:00 15.1 8 Este 24 Este 0 -- -- 87
2020-06-26 05:00:00 15.6 12 Este 22 Este 0 -- -- 87
2020-06-26 04:00:00 16 13 Este 22 Nordeste 0 -- -- 86
2020-06-26 03:00:00 15.9 12 Este 18 Este 0 -- -- 87
2020-06-26 02:00:00 15.3 8 Este 14 Este 0 -- -- 86
2020-06-26 01:00:00 16 7 Nordeste 15 Este 0 -- -- 82
2020-06-26 00:00:00 17.1 7 Este 27 Este 0 -- -- 76
2020-06-25 23:00:00 18.5 21 Este 30 Sudeste 0 -- -- 69
2020-06-25 22:00:00 19.6 15 Este 31 Este 0 -- -- 64
2020-06-25 21:00:00 21.6 11 Este 24 Sudeste 0 -- -- 62
2020-06-25 20:00:00 19.2 8 Este 45 Noroeste 0.6 -- -- 68
2020-06-25 19:00:00 19.2 15 Sudoeste 39 Sudoeste 0 -- -- 60
2020-06-25 18:00:00 21.3 14 Oeste 44 Oeste 0 -- -- 47
2020-06-25 17:00:00 26.1 14 Noroeste 21 Noroeste 0 -- -- 45
2020-06-25 16:00:00 28.3 7 Norte 13 Este 0 -- -- 40
2020-06-25 15:00:00 31 7 Nordeste 15 Este 0 -- -- 35
2020-06-25 14:00:00 28.7 8 Oeste 20 Este 0 -- -- 39
2020-06-25 13:00:00 27.1 12 Este 23 Este 0 -- -- 46
2020-06-25 12:00:00 22.3 13 Nordeste 22 Este 0.4 -- -- 64
2020-06-25 11:00:00 25.6 21 Este 35 Este 0 -- -- 47
2020-06-25 10:00:00 22.9 22 Este 31 Este 0 -- -- 53
2020-06-25 09:00:00 19 9 Este 16 Nordeste 0 -- -- 66
2020-06-25 08:00:00 16.9 7 Este 18 Este 0 -- -- 71
2020-06-25 07:00:00 15.3 11 Este 19 Este 0 -- -- 75
2020-06-25 06:00:00 14 8 Este 14 Este 0 -- -- 81
2020-06-25 05:00:00 14.9 4 Este 8 Este 0 -- -- 77
2020-06-25 04:00:00 16.2 5 Este 14 Nordeste 0 -- -- 72
2020-06-25 03:00:00 16.8 8 Nordeste 13 Nordeste 0 -- -- 72
2020-06-25 02:00:00 17.1 5 Este 11 Este 0 -- -- 74
2020-06-25 01:00:00 16.8 3 Este 8 Nordeste 0 -- -- 78
2020-06-25 00:00:00 17.2 7 Nordeste 22 Este 0 -- -- 77
2020-06-24 23:00:00 19.9 3 Nordeste 6 Nordeste 0 -- -- 67
2020-06-24 22:00:00 22.5 0 Calma 8 Nordeste 0 -- -- 55
2020-06-24 21:00:00 25.9 3 Nordeste 9 Este 0 -- -- 44
2020-06-24 20:00:00 29.3 4 Sudeste 17 Este 0 -- -- 31
2020-06-24 19:00:00 29.1 7 Este 13 Sudeste 0 -- -- 31
2020-06-24 18:00:00 28.2 7 Sudeste 12 Este 0 -- -- 35
2020-06-24 17:00:00 27.5 5 Sudeste 16 Sudeste 0 -- -- 32
2020-06-24 16:00:00 25.7 12 Sur 23 Sudeste 0 -- -- 37
2020-06-24 15:00:00 26 13 Sur 42 Sur 0 -- -- 39
2020-06-24 14:00:00 28.6 8 Sudeste 24 Este 0 -- -- 42
2020-06-24 13:00:00 25.6 19 Este 27 Este 0 -- -- 53
2020-06-24 12:00:00 22 14 Sudeste 60 Oeste 0 -- -- 62
2020-06-24 11:00:00 21.1 10 Este 15 Este 0 -- -- 66
2020-06-24 10:00:00 21.6 9 Este 17 Este 0 -- -- 63
2020-06-24 09:00:00 19.8 5 Oeste 11 Oeste 0 -- -- 65
2020-06-24 08:00:00 17 4 Este 10 Este 0 -- -- 73
2020-06-24 07:00:00 13.4 5 Nordeste 10 Este 0 -- -- 86
2020-06-24 06:00:00 13.8 6 Nordeste 11 Nordeste 0 -- -- 84
2020-06-24 05:00:00 14.5 5 Este 12 Sudeste 0 -- -- 87
2020-06-24 04:00:00 16.1 3 Sur 7 Nordeste 0 -- -- 79
2020-06-24 03:00:00 17.1 3 Sur 7 Sur 0 -- -- 75
2020-06-24 02:00:00 17.4 3 Nordeste 21 Sur 0 -- -- 74
2020-06-24 01:00:00 18.9 6 Este 15 Nordeste 0 -- -- 63
2020-06-24 00:00:00 18.9 6 Este 21 Este 0 -- -- 68
2020-06-23 23:00:00 20.6 8 Este 36 Nordeste 4.8 -- -- 58
2020-06-23 22:00:00 24 26 Norte 41 Norte 0 -- -- 39
2020-06-23 21:00:00 26.7 15 Noroeste 28 Oeste 0 -- -- 32
2020-06-23 20:00:00 29.2 8 Sur 22 Sudeste 0 -- -- 31
2020-06-23 19:00:00 30.3 18 Sudeste 32 Sur 0 -- -- 26
2020-06-23 18:00:00 31.5 17 Sudeste 29 Sudeste 0 -- -- 27
2020-06-23 17:00:00 31.7 11 Sudeste 20 Oeste 0 -- -- 24
2020-06-23 16:00:00 32.3 7 Oeste 27 Oeste 0 -- -- 23
2020-06-23 15:00:00 32.9 16 Oeste 29 Oeste 0 -- -- 23
2020-06-23 14:00:00 32.2 7 Sudoeste 20 Sur 0 -- -- 24
2020-06-23 13:00:00 31.6 5 Nordeste 16 Este 0 -- -- 29
2020-06-23 12:00:00 29 10 Este 21 Este 0 -- -- 36
2020-06-23 11:00:00 25.8 14 Este 21 Este 0 -- -- 44
2020-06-23 10:00:00 23 16 Este 22 Este 0 -- -- 49
2020-06-23 09:00:00 19.8 14 Este 20 Este 0 -- -- 54
2020-06-23 08:00:00 15.1 8 Este 12 Este 0 -- -- 68
2020-06-23 07:00:00 11.5 4 Este 9 Este 0 -- -- 83
2020-06-23 06:00:00 11.6 4 Este 8 Este 0 -- -- 82
2020-06-23 05:00:00 11.3 5 Este 8 Este 0 -- -- 84
2020-06-23 04:00:00 12.5 5 Este 8 Nordeste 0 -- -- 78
2020-06-23 03:00:00 12.3 3 Sudeste 5 Sudeste 0 -- -- 81
2020-06-23 02:00:00 15.7 3 Este 8 Este 0 -- -- 66
2020-06-23 01:00:00 18.4 6 Este 11 Este 0 -- -- 53
2020-06-23 00:00:00 20.1 7 Este 22 Este 0 -- -- 48
2020-06-22 23:00:00 22.1 8 Nordeste 18 Este 0 -- -- 43
2020-06-22 22:00:00 23.7 12 Este 20 Este 0 -- -- 41
2020-06-22 21:00:00 30.5 6 Este 12 Este 0 -- -- 26
2020-06-22 20:00:00 31.2 7 Nordeste 13 Este 0 -- -- 24
2020-06-22 19:00:00 32 5 Norte 17 Este 0 -- -- 23
2020-06-22 18:00:00 32.9 4 Noroeste 17 Noroeste 0 -- -- 24
2020-06-22 17:00:00 31.1 6 Este 17 Este 0 -- -- 24
2020-06-22 16:00:00 30.3 6 Nordeste 22 Este 0 -- -- 28
2020-06-22 15:00:00 29 7 Sudeste 19 Este 0 -- -- 31
2020-06-22 14:00:00 28.4 10 Sudeste 22 Este 0 -- -- 30
2020-06-22 13:00:00 26.5 9 Sudeste 22 Este 0 -- -- 38
2020-06-22 12:00:00 24.5 8 Este 18 Este 0 -- -- 46
2020-06-22 11:00:00 21.9 10 Este 21 Este 0 -- -- 56
2020-06-22 10:00:00 19.2 11 Este 17 Este 0 -- -- 64
2020-06-22 09:00:00 15.7 4 Este 8 Este 0 -- -- 74
2020-06-22 08:00:00 11.9 4 Nordeste 6 Nordeste 0 -- -- 87
2020-06-22 07:00:00 8.7 2 Sudeste 5 Sudeste 0 -- -- 93
2020-06-22 06:00:00 9.4 0 Calma 4 Sudeste 0 -- -- 92
2020-06-22 05:00:00 10.3 2 Nordeste 5 Este 0 -- -- 91
2020-06-22 04:00:00 12.5 3 Este 6 Este 0 -- -- 82
2020-06-22 03:00:00 14.1 2 Este 17 Sudeste 0 -- -- 75
2020-06-22 02:00:00 15.9 10 Sudeste 18 Sudeste 0 -- -- 70
2020-06-22 01:00:00 16.7 9 Sudeste 17 Este 0 -- -- 67
2020-06-22 00:00:00 18.1 8 Sudeste 27 Este 0 -- -- 62
2020-06-21 23:00:00 20.1 15 Este 30 Este 0 -- -- 56
2020-06-21 22:00:00 21.4 8 Nordeste 16 Este 0 -- -- 42
2020-06-21 21:00:00 27.1 10 Noroeste 21 Noroeste 0 -- -- 25
2020-06-21 20:00:00 28.7 13 Oeste 26 Oeste 0 -- -- 21
2020-06-21 19:00:00 29 15 Noroeste 27 Noroeste 0 -- -- 19
2020-06-21 18:00:00 29 17 Noroeste 31 Oeste 0 -- -- 20
2020-06-21 17:00:00 28.7 16 Oeste 37 Noroeste 0 -- -- 22
2020-06-21 16:00:00 27.5 16 Oeste 33 Oeste 0 -- -- 26
2020-06-21 15:00:00 27.3 18 Oeste 31 Oeste 0 -- -- 27
2020-06-21 14:00:00 26 14 Oeste 29 Noroeste 0 -- -- 33
2020-06-21 13:00:00 24.8 17 Oeste 29 Oeste 0 -- -- 36
2020-06-21 12:00:00 23.2 15 Oeste 26 Oeste 0 -- -- 37
2020-06-21 11:00:00 21.3 14 Oeste 20 Noroeste 0 -- -- 44
2020-06-21 10:00:00 19 9 Oeste 15 Oeste 0 -- -- 48
2020-06-21 09:00:00 15.1 4 Este 6 Este 0 -- -- 65
2020-06-21 08:00:00 10.5 2 Este 5 Sudeste 0 -- -- 83
2020-06-21 07:00:00 8.6 2 Este 6 Nordeste 0 -- -- 89
2020-06-21 06:00:00 8.9 2 Este 6 Nordeste 0 -- -- 87
2020-06-21 05:00:00 9.9 2 Nordeste 8 Nordeste 0 -- -- 83
2020-06-21 04:00:00 10.1 3 Nordeste 5 Sudeste 0 -- -- 83
2020-06-21 03:00:00 10.9 3 Sudeste 5 Este 0 -- -- 80
2020-06-21 02:00:00 12.5 2 Este 5 Este 0 -- -- 73
2020-06-21 01:00:00 13.7 3 Nordeste 8 Nordeste 0 -- -- 67
2020-06-21 00:00:00 16.1 2 Nordeste 9 Noroeste 0 -- -- 57
2020-06-20 23:00:00 20.5 10 Noroeste 15 Noroeste 0 -- -- 37
2020-06-20 22:00:00 21.6 10 Noroeste 19 Noroeste 0 -- -- 37
2020-06-20 21:00:00 26.2 11 Noroeste 23 Noroeste 0 -- -- 31
2020-06-20 20:00:00 27.9 14 Noroeste 27 Oeste 0 -- -- 28
2020-06-20 19:00:00 28 19 Noroeste 31 Oeste 0 -- -- 25
2020-06-20 18:00:00 28.5 15 Oeste 33 Oeste 0 -- -- 26
2020-06-20 17:00:00 28.3 15 Oeste 40 Oeste 0 -- -- 26
2020-06-20 16:00:00 27.2 13 Noroeste 32 Oeste 0 -- -- 30
2020-06-20 15:00:00 26.1 16 Oeste 44 Oeste 0 -- -- 33
2020-06-20 14:00:00 25.3 9 Oeste 39 Noroeste 0 -- -- 36
2020-06-20 13:00:00 24.3 11 Noroeste 28 Noroeste 0 -- -- 37
2020-06-20 12:00:00 22.5 10 Noroeste 19 Noroeste 0 -- -- 41
2020-06-20 11:00:00 20.9 10 Oeste 18 Oeste 0 -- -- 44
2020-06-20 10:00:00 19 4 Sudoeste 9 Sudoeste 0 -- -- 51
2020-06-20 09:00:00 14.3 3 Sudeste 6 Este 0 -- -- 75
2020-06-20 08:00:00 10.8 3 Este 6 Este 0 -- -- 83
2020-06-20 07:00:00 8.2 3 Este 7 Este 0 -- -- 88
2020-06-20 06:00:00 8.3 4 Este 8 Nordeste 0 -- -- 86
2020-06-20 05:00:00 8.7 4 Nordeste 6 Nordeste 0 -- -- 84
2020-06-20 04:00:00 9.3 3 Sudeste 5 Este 0 -- -- 80
2020-06-20 03:00:00 9.7 2 Este 4 Nordeste 0 -- -- 81
2020-06-20 02:00:00 11.6 0 Calma 5 Sudeste 0 -- -- 70
2020-06-20 01:00:00 12 0 Calma 6 Este 0 -- -- 67
2020-06-20 00:00:00 13.4 8 Este 14 Sudeste 0 -- -- 64
2020-06-19 23:00:00 18.3 10 Noroeste 13 Noroeste 0 -- -- 37
2020-06-19 22:00:00 19.4 10 Noroeste 16 Noroeste 0 -- -- 38
2020-06-19 21:00:00 24.4 9 Oeste 24 Oeste 0 -- -- 29
2020-06-19 20:00:00 25.5 18 Noroeste 31 Oeste 0 -- -- 24
2020-06-19 19:00:00 26.1 18 Oeste 32 Oeste 0 -- -- 23
2020-06-19 18:00:00 26 20 Oeste 36 Oeste 0 -- -- 24
2020-06-19 17:00:00 25.8 21 Oeste 36 Oeste 0 -- -- 27
2020-06-19 16:00:00 25.3 16 Oeste 37 Oeste 0 -- -- 31
2020-06-19 15:00:00 24.4 22 Oeste 35 Oeste 0 -- -- 33
2020-06-19 14:00:00 23.7 18 Noroeste 47 Oeste 0 -- -- 36
2020-06-19 13:00:00 22.8 12 Oeste 25 Oeste 0 -- -- 39
2020-06-19 12:00:00 21.2 7 Sudoeste 18 Oeste 0 -- -- 42
2020-06-19 11:00:00 19.1 7 Sudoeste 18 Sudoeste 0 -- -- 50
2020-06-19 10:00:00 17 3 Este 9 Este 0 -- -- 61
2020-06-19 09:00:00 13 3 Este 8 Este 0 -- -- 78
2020-06-19 08:00:00 11.1 5 Este 9 Este 0 -- -- 84
2020-06-19 07:00:00 8.2 2 Nordeste 8 Este 0 -- -- 94
2020-06-19 06:00:00 8.1 4 Este 9 Este 0 -- -- 92
2020-06-19 05:00:00 9.7 6 Este 13 Este 0 -- -- 87
2020-06-19 04:00:00 10.5 8 Este 11 Este 0 -- -- 85
2020-06-19 03:00:00 10.7 6 Este 12 Este 0 -- -- 84
2020-06-19 02:00:00 11.9 8 Este 12 Este 0 -- -- 79
2020-06-19 01:00:00 12.6 3 Este 10 Este 0 -- -- 76
2020-06-19 00:00:00 13.8 3 Este 18 Este 0 -- -- 72
2020-06-18 23:00:00 15.4 7 Este 25 Este 0 -- -- 67
2020-06-18 22:00:00 17.3 19 Este 27 Este 0 -- -- 61
2020-06-18 21:00:00 21.4 9 Noroeste 23 Noroeste 0 -- -- 39
2020-06-18 20:00:00 22.5 16 Noroeste 32 Oeste 0 -- -- 36
2020-06-18 19:00:00 23.1 21 Noroeste 34 Oeste 0 -- -- 35
2020-06-18 18:00:00 23.7 21 Oeste 37 Oeste 0 -- -- 34
2020-06-18 17:00:00 23.4 22 Oeste 37 Oeste 0 -- -- 35
2020-06-18 16:00:00 23.4 14 Noroeste 33 Oeste 0 -- -- 39
2020-06-18 15:00:00 22.5 17 Noroeste 29 Oeste 0 -- -- 40
2020-06-18 14:00:00 21.9 9 Oeste 23 Oeste 0 -- -- 43
2020-06-18 13:00:00 20 7 Oeste 18 Oeste 0 -- -- 46
2020-06-18 12:00:00 19 8 Sudoeste 15 Sudeste 0 -- -- 45
2020-06-18 11:00:00 17.6 5 Sur 13 Sudeste 0 -- -- 54
2020-06-18 10:00:00 15.8 6 Nordeste 17 Este 0 -- -- 63
2020-06-18 09:00:00 13.1 10 Este 15 Nordeste 0 -- -- 75
2020-06-18 08:00:00 10 8 Este 11 Este 0 -- -- 85
2020-06-18 07:00:00 8.3 4 Este 9 Este 0 -- -- 92
2020-06-18 06:00:00 8.8 6 Este 13 Este 0 -- -- 90
2020-06-18 05:00:00 9.4 6 Este 13 Este 0 -- -- 87
2020-06-18 04:00:00 10.6 10 Este 16 Este 0 -- -- 83
2020-06-18 03:00:00 11.3 10 Este 16 Este 0 -- -- 79
2020-06-18 02:00:00 12 9 Este 24 Sudeste 0 -- -- 76
2020-06-18 01:00:00 12.8 12 Este 24 Este 0 -- -- 72
2020-06-18 00:00:00 13.6 9 Nordeste 22 Este 0 -- -- 69
2020-06-17 23:00:00 14 4 Este 9 Este 0 -- -- 64
2020-06-17 22:00:00 15.9 5 Norte 11 Norte 0 -- -- 53
2020-06-17 21:00:00 18.1 7 Norte 19 Oeste 0 -- -- 44
2020-06-17 20:00:00 19.9 10 Noroeste 23 Noroeste 0 -- -- 38
2020-06-17 19:00:00 19.3 15 Noroeste 26 Noroeste 0 -- -- 39
2020-06-17 18:00:00 20.4 18 Noroeste 32 Noroeste 0 -- -- 37
2020-06-17 17:00:00 19.6 9 Noroeste 28 Oeste 0 -- -- 38
2020-06-17 16:00:00 19.3 14 Noroeste 33 Noroeste 0 -- -- 39
2020-06-17 15:00:00 18.8 17 Noroeste 35 Oeste 0 -- -- 39
2020-06-17 14:00:00 18.5 13 Oeste 26 Oeste 0 -- -- 39
2020-06-17 13:00:00 16.6 13 Noroeste 24 Oeste 0 -- -- 48
2020-06-17 12:00:00 15.9 6 Noroeste 18 Noroeste 0 -- -- 59
2020-06-17 11:00:00 14.3 7 Noroeste 16 Oeste 0 -- -- 69
2020-06-17 10:00:00 11.9 12 Oeste 19 Oeste 0 -- -- 78
2020-06-17 09:00:00 11.2 10 Oeste 16 Oeste 0 -- -- 83
2020-06-17 08:00:00 10.3 6 Sudoeste 9 Sudoeste 0 -- -- 90
2020-06-17 07:00:00 10.6 5 Sudeste 8 Este 0 -- -- 88
2020-06-17 06:00:00 10.5 3 Este 13 Este 0 -- -- 88
2020-06-17 05:00:00 10.3 3 Este 12 Este 0 -- -- 88
2020-06-17 04:00:00 9.8 0 Calma 4 Este 0 -- -- 90
2020-06-17 03:00:00 9.2 3 Este 6 Este 0 -- -- 92
2020-06-17 02:00:00 10.2 2 Norte 4 Nordeste 0 -- -- 88
2020-06-17 01:00:00 11.6 7 Oeste 13 Oeste 0 -- -- 80
2020-06-17 00:00:00 11.1 9 Oeste 13 Oeste 0 -- -- 82
2020-06-16 23:00:00 12.1 7 Oeste 15 Oeste 0 -- -- 75
2020-06-16 22:00:00 14.9 15 Noroeste 34 Oeste 0 -- -- 60
2020-06-16 21:00:00 16.6 20 Oeste 32 Oeste 0 -- -- 54
2020-06-16 20:00:00 18.6 17 Oeste 33 Oeste 0 -- -- 50
2020-06-16 19:00:00 17.9 20 Oeste 63 Oeste 0 -- -- 53
2020-06-16 18:00:00 17.8 24 Oeste 52 Oeste 0 -- -- 48
2020-06-16 17:00:00 17.4 25 Oeste 46 Noroeste 0 -- -- 53
2020-06-16 16:00:00 19.1 20 Oeste 37 Oeste 0 -- -- 44
2020-06-16 15:00:00 19.3 19 Oeste 36 Oeste 0 -- -- 43
2020-06-16 14:00:00 18.3 21 Oeste 36 Oeste 0 -- -- 46
2020-06-16 13:00:00 17.1 24 Oeste 36 Oeste 0 -- -- 49
2020-06-16 12:00:00 17 21 Oeste 39 Noroeste 0 -- -- 53
2020-06-16 11:00:00 15.5 17 Oeste 33 Oeste 0 -- -- 59
2020-06-16 10:00:00 14.1 16 Oeste 26 Oeste 0 -- -- 66
2020-06-16 09:00:00 12.3 12 Oeste 18 Oeste 0 -- -- 78
2020-06-16 08:00:00 11.1 8 Oeste 14 Oeste 0 -- -- 82
2020-06-16 07:00:00 11.1 9 Oeste 14 Oeste 0 -- -- 84
2020-06-16 06:00:00 10.7 4 Oeste 13 Oeste 0 -- -- 84
2020-06-16 05:00:00 11.5 8 Oeste 22 Oeste 0 -- -- 82
2020-06-16 04:00:00 12.2 13 Oeste 21 Oeste 0 -- -- 81
2020-06-16 03:00:00 12.7 12 Oeste 23 Oeste 0 -- -- 81
2020-06-16 02:00:00 14 17 Oeste 26 Oeste 0 -- -- 69
2020-06-16 01:00:00 14.4 17 Oeste 23 Oeste 0 -- -- 68
2020-06-16 00:00:00 15.4 7 Oeste 12 Oeste 0 -- -- 63
2020-06-15 23:00:00 16.2 8 Oeste 12 Noroeste 0 -- -- 59
2020-06-15 22:00:00 17.1 10 Noroeste 16 Noroeste 0 -- -- 54
2020-06-15 21:00:00 17.9 11 Noroeste 24 Noroeste 0 -- -- 52
2020-06-15 20:00:00 19.2 18 Noroeste 30 Noroeste 0 -- -- 49
2020-06-15 19:00:00 20.1 19 Noroeste 32 Oeste 0 -- -- 47
2020-06-15 18:00:00 21.5 19 Noroeste 31 Oeste 0 -- -- 44
2020-06-15 17:00:00 21.1 14 Noroeste 36 Oeste 0 -- -- 45
2020-06-15 16:00:00 20.9 14 Noroeste 27 Noroeste 0 -- -- 48
2020-06-15 15:00:00 20.8 15 Noroeste 27 Oeste 0 -- -- 47
2020-06-15 14:00:00 18.3 10 Noroeste 24 Noroeste 0 -- -- 55
2020-06-15 13:00:00 17.8 13 Noroeste 26 Noroeste 0 -- -- 55
2020-06-15 12:00:00 17.7 12 Oeste 24 Noroeste 0 -- -- 54
2020-06-15 11:00:00 15.7 13 Noroeste 23 Oeste 0 -- -- 61
2020-06-15 10:00:00 14.3 10 Noroeste 18 Oeste 0 -- -- 67
2020-06-15 09:00:00 12.3 5 Sudeste 8 Sudeste 0 -- -- 79
2020-06-15 08:00:00 9.5 2 Este 3 Sudeste 0 -- -- 88
2020-06-15 07:00:00 8.3 0 Calma 8 Sudoeste 0 -- -- 91
2020-06-15 06:00:00 8.7 4 Oeste 12 Noroeste 0 -- -- 88
2020-06-15 05:00:00 10.1 8 Oeste 19 Oeste 0 -- -- 83
2020-06-15 04:00:00 10.7 14 Oeste 19 Oeste 0 -- -- 78
2020-06-15 03:00:00 11.1 9 Oeste 15 Oeste 0 -- -- 76
2020-06-15 02:00:00 8.6 4 Oeste 5 Oeste 0 -- -- 87
2020-06-15 01:00:00 10.6 0 Calma 3 Oeste 0 -- -- 80
2020-06-15 00:00:00 11.5 2 Sudeste 10 Sudoeste 0 -- -- 73
2020-06-14 23:00:00 12.6 5 Noroeste 15 Noroeste 0 -- -- 68
2020-06-14 22:00:00 15.1 12 Noroeste 14 Noroeste 0 -- -- 55
2020-06-14 21:00:00 17.1 10 Noroeste 26 Noroeste 0 -- -- 49
2020-06-14 20:00:00 19 14 Noroeste 32 Noroeste 0 -- -- 43
2020-06-14 19:00:00 19.5 22 Oeste 34 Oeste 0 -- -- 41
2020-06-14 18:00:00 19.5 20 Oeste 34 Oeste 0 -- -- 41
2020-06-14 17:00:00 19.5 21 Noroeste 35 Oeste 0 -- -- 41
2020-06-14 16:00:00 20.6 19 Oeste 37 Oeste 0 -- -- 40
2020-06-14 15:00:00 20 15 Oeste 32 Oeste 0 -- -- 44
2020-06-14 14:00:00 18.5 19 Oeste 35 Oeste 0 -- -- 47
2020-06-14 13:00:00 17.2 11 Oeste 23 Noroeste 0 -- -- 53
2020-06-14 12:00:00 17.1 12 Oeste 25 Oeste 0 -- -- 51
2020-06-14 11:00:00 15.7 5 Oeste 17 Oeste 0 -- -- 54
2020-06-14 10:00:00 13.1 6 Oeste 12 Oeste 0 -- -- 64
2020-06-14 09:00:00 11.3 6 Oeste 9 Oeste 0 -- -- 81
2020-06-14 08:00:00 9.4 0 Calma 8 Oeste 0 -- -- 92
2020-06-14 07:00:00 8.5 5 Oeste 6 Oeste 0 -- -- 94
2020-06-14 06:00:00 8.5 0 Calma 4 Este 0 -- -- 93
2020-06-14 05:00:00 8.5 0 Calma 4 Este 0 -- -- 93
2020-06-14 04:00:00 9.1 0 Calma 4 Norte 0 -- -- 90
2020-06-14 03:00:00 9.7 2 Sudeste 4 Sudeste 0 -- -- 87
2020-06-14 02:00:00 10.1 4 Este 8 Oeste 0 -- -- 84
2020-06-14 01:00:00 11.2 4 Oeste 12 Oeste 0 -- -- 78
2020-06-14 00:00:00 11.9 7 Oeste 18 Noroeste 0 -- -- 71
2020-06-13 23:00:00 13.3 13 Noroeste 22 Noroeste 0 -- -- 64
2020-06-13 22:00:00 14.3 10 Noroeste 16 Oeste 0 -- -- 59
2020-06-13 21:00:00 15.9 14 Noroeste 24 Oeste 0 -- -- 49
2020-06-13 20:00:00 18.3 14 Oeste 27 Oeste 0 -- -- 44
2020-06-13 19:00:00 18.5 21 Oeste 37 Oeste 0 -- -- 42
2020-06-13 18:00:00 17.7 21 Oeste 39 Oeste 0 -- -- 42
2020-06-13 17:00:00 18.5 19 Oeste 35 Oeste 0 -- -- 43
2020-06-13 16:00:00 17 21 Oeste 33 Oeste 0 -- -- 45
2020-06-13 15:00:00 16.9 21 Oeste 40 Oeste 0 -- -- 47
2020-06-13 14:00:00 15.3 20 Oeste 35 Oeste 0 -- -- 53
2020-06-13 13:00:00 14.5 24 Oeste 37 Oeste 0 -- -- 57
2020-06-13 12:00:00 12.7 21 Oeste 32 Oeste 0 -- -- 66
2020-06-13 11:00:00 12 19 Oeste 32 Oeste 0 -- -- 70
2020-06-13 10:00:00 10.4 15 Oeste 29 Oeste 0 -- -- 82
2020-06-13 09:00:00 9.5 21 Oeste 31 Oeste 0 -- -- 87
2020-06-13 08:00:00 9.1 17 Oeste 31 Oeste 0 -- -- 89
2020-06-13 07:00:00 9.1 14 Oeste 20 Oeste 0 -- -- 90
2020-06-13 06:00:00 9.1 8 Oeste 21 Oeste 0 -- -- 91
2020-06-13 05:00:00 9 12 Oeste 21 Oeste 0 -- -- 92
2020-06-13 04:00:00 9.1 17 Oeste 23 Oeste 0 -- -- 92
2020-06-13 03:00:00 9.1 14 Oeste 25 Oeste 0.8 -- -- 93
2020-06-13 02:00:00 9.2 17 Oeste 25 Sudoeste 0 -- -- 91
2020-06-13 01:00:00 9 11 Oeste 21 Oeste 0.2 -- -- 89
2020-06-13 00:00:00 8.8 9 Oeste 25 Oeste 0 -- -- 91
2020-06-12 23:00:00 9.9 10 Oeste 25 Oeste 0 -- -- 89
2020-06-12 22:00:00 9.3 5 Sudoeste 20 Sudoeste 3.6 -- -- 92
2020-06-12 21:00:00 10.2 12 Noroeste 35 Noroeste 1.6 -- -- 83
2020-06-12 20:00:00 11.7 29 Noroeste 47 Noroeste 0 -- -- 70
2020-06-12 19:00:00 12.6 20 Oeste 40 Oeste 0 -- -- 74
2020-06-12 18:00:00 12.4 29 Noroeste 55 Oeste 0.2 -- -- 72
2020-06-12 17:00:00 15.8 30 Oeste 45 Sudoeste 0 -- -- 54
2020-06-12 16:00:00 13.1 24 Oeste 48 Oeste 0.8 -- -- 73
2020-06-12 15:00:00 12.5 18 Oeste 52 Oeste 1.2 -- -- 79
2020-06-12 14:00:00 10.8 32 Oeste 50 Sudoeste 0 -- -- 78
2020-06-12 13:00:00 14.2 37 Sudoeste 49 Sudoeste 0 -- -- 59
2020-06-12 12:00:00 11.3 35 Oeste 47 Sudoeste 0 -- -- 67
2020-06-12 11:00:00 9.9 28 Oeste 50 Sudoeste 0 -- -- 72
2020-06-12 10:00:00 9 33 Oeste 57 Sudoeste 0 -- -- 73
2020-06-12 09:00:00 8.8 33 Oeste 50 Oeste 0 -- -- 73
2020-06-12 08:00:00 8.4 24 Oeste 42 Oeste 0 -- -- 73
2020-06-12 07:00:00 7.7 19 Sudoeste 39 Sudoeste 0 -- -- 74
2020-06-12 06:00:00 7.6 20 Oeste 34 Oeste 0 -- -- 75
2020-06-12 05:00:00 7.6 18 Oeste 36 Sudoeste 0 -- -- 74
2020-06-12 04:00:00 9.3 19 Oeste 38 Oeste 0 -- -- 65
2020-06-12 03:00:00 9.7 31 Oeste 44 Oeste 0 -- -- 64
2020-06-12 02:00:00 9.6 15 Oeste 38 Oeste 0 -- -- 66
2020-06-12 01:00:00 10.3 23 Noroeste 38 Noroeste 0 -- -- 62
2020-06-12 00:00:00 11.4 24 Noroeste 47 Oeste 0 -- -- 58
2020-06-11 23:00:00 13.8 35 Oeste 52 Oeste 0 -- -- 48
2020-06-11 22:00:00 15.6 30 Oeste 48 Oeste 0 -- -- 47
2020-06-11 21:00:00 15.5 20 Oeste 41 Oeste 0 -- -- 57
2020-06-11 20:00:00 16 29 Oeste 51 Sudoeste 0 -- -- 54
2020-06-11 19:00:00 17.8 27 Sudoeste 45 Sudoeste 0 -- -- 46
2020-06-11 18:00:00 17.3 30 Oeste 50 Oeste 0 -- -- 45
2020-06-11 17:00:00 18 31 Oeste 52 Oeste 0 -- -- 44
2020-06-11 16:00:00 18.8 36 Sudoeste 50 Sudoeste 0 -- -- 48
2020-06-11 15:00:00 16.2 30 Oeste 44 Oeste 0 -- -- 58
2020-06-11 14:00:00 15.7 28 Oeste 46 Oeste 0 -- -- 60
2020-06-11 13:00:00 16.9 28 Oeste 41 Oeste 0 -- -- 57
2020-06-11 12:00:00 17.1 31 Oeste 45 Sudoeste 0 -- -- 50
2020-06-11 11:00:00 14.6 26 Oeste 37 Oeste 0 -- -- 63
2020-06-11 10:00:00 13.9 26 Oeste 35 Oeste 0 -- -- 71
2020-06-11 09:00:00 12.9 21 Oeste 32 Oeste 0 -- -- 72
2020-06-11 08:00:00 11.9 15 Oeste 23 Sudoeste 0 -- -- 76
2020-06-11 07:00:00 11.1 15 Oeste 24 Oeste 0 -- -- 78
2020-06-11 06:00:00 9.5 6 Oeste 10 Oeste 0 -- -- 87
2020-06-11 05:00:00 8.5 0 Calma 7 Nordeste 0 -- -- 87
2020-06-11 04:00:00 9.7 4 Este 9 Este 0 -- -- 82
2020-06-11 03:00:00 10.2 5 Este 14 Este 0 -- -- 80
2020-06-11 02:00:00 11.3 6 Nordeste 14 Este 0 -- -- 76
2020-06-11 01:00:00 12.4 6 Este 14 Este 0 -- -- 72
2020-06-11 00:00:00 13.4 9 Este 14 Este 0 -- -- 68
2020-06-10 23:00:00 14.3 12 Este 18 Este 0 -- -- 67
2020-06-10 22:00:00 15.7 6 Nordeste 8 Nordeste 0 -- -- 64
2020-06-10 21:00:00 17.4 3 Este 8 Nordeste 0 -- -- 53
2020-06-10 20:00:00 18.5 3 Norte 17 Noroeste 0 -- -- 44
2020-06-10 19:00:00 18.7 8 Noroeste 23 Oeste 0 -- -- 41
2020-06-10 18:00:00 19.1 16 Oeste 25 Oeste 0 -- -- 39
2020-06-10 17:00:00 19.3 12 Oeste 32 Oeste 0 -- -- 39
2020-06-10 16:00:00 19.6 17 Noroeste 32 Noroeste 0 -- -- 37
2020-06-10 15:00:00 18.5 19 Oeste 33 Noroeste 0 -- -- 40
2020-06-10 14:00:00 18.9 14 Noroeste 35 Oeste 0 -- -- 40
2020-06-10 13:00:00 17.6 7 Oeste 21 Oeste 0 -- -- 42
2020-06-10 12:00:00 16.2 4 Oeste 13 Oeste 0 -- -- 45
2020-06-10 11:00:00 14.8 3 Sudeste 9 Este 0 -- -- 54
2020-06-10 10:00:00 12 4 Este 9 Nordeste 0 -- -- 66
2020-06-10 09:00:00 7.4 3 Nordeste 7 Este 0 -- -- 89
2020-06-10 08:00:00 4.5 6 Este 9 Este 0 -- -- 95
2020-06-10 07:00:00 2.5 5 Este 8 Este 0 -- -- 96
2020-06-10 06:00:00 2.8 3 Este 6 Nordeste 0 -- -- 95
2020-06-10 05:00:00 3.1 4 Este 8 Este 0 -- -- 95
2020-06-10 04:00:00 3.8 2 Nordeste 5 Sudeste 0 -- -- 94
2020-06-10 03:00:00 5.2 3 Sudeste 5 Sudeste 0 -- -- 90
2020-06-10 02:00:00 5.4 0 Calma 8 Nordeste 0 -- -- 89
2020-06-10 01:00:00 6.4 4 Este 7 Este 0 -- -- 86
2020-06-10 00:00:00 8.3 5 Nordeste 8 Norte 0 -- -- 76
2020-06-09 23:00:00 10 6 Norte 13 Norte 0 -- -- 68
2020-06-09 22:00:00 11.5 8 Norte 23 Noroeste 0 -- -- 59
2020-06-09 21:00:00 14.6 15 Noroeste 28 Noroeste 0 -- -- 47
2020-06-09 20:00:00 16.5 18 Noroeste 27 Noroeste 0 -- -- 40
2020-06-09 19:00:00 16.9 17 Noroeste 26 Noroeste 0 -- -- 40
2020-06-09 18:00:00 17.7 15 Oeste 27 Oeste 0 -- -- 38
2020-06-09 17:00:00 16.8 18 Noroeste 26 Oeste 0 -- -- 39
2020-06-09 16:00:00 17.1 13 Oeste 30 Noroeste 0 -- -- 38
2020-06-09 15:00:00 16.6 13 Oeste 44 Norte 0 -- -- 38
2020-06-09 14:00:00 15.5 17 Noroeste 34 Norte 0 -- -- 42
2020-06-09 13:00:00 14.4 14 Noroeste 29 Oeste 0 -- -- 46
2020-06-09 12:00:00 14.1 13 Noroeste 25 Noroeste 0 -- -- 48
2020-06-09 11:00:00 12.8 8 Norte 28 Noroeste 0 -- -- 51
2020-06-09 10:00:00 10.4 13 Oeste 19 Oeste 0 -- -- 68
2020-06-09 09:00:00 7.9 3 Oeste 6 Oeste 0 -- -- 87
2020-06-09 08:00:00 3.9 2 Este 4 Sudeste 0 -- -- 95
2020-06-09 07:00:00 2.2 3 Este 4 Este 0 -- -- 96
2020-06-09 06:00:00 2 0 Calma 5 Sudeste 0 -- -- 96
2020-06-09 05:00:00 2.6 0 Calma 6 Sudeste 0 -- -- 94
2020-06-09 04:00:00 4 0 Calma 4 Este 0 -- -- 91
2020-06-09 03:00:00 4.7 0 Calma 7 Sudeste 0 -- -- 91
2020-06-09 02:00:00 6.1 3 Noroeste 10 Noroeste 0 -- -- 83
2020-06-09 01:00:00 7.5 2 Este 13 Norte 0 -- -- 76
2020-06-09 00:00:00 9.4 10 Norte 16 Norte 0 -- -- 70